createdAt,value
2017-06-27T00:00:32.196Z,14.20
2017-06-27T00:02:59.718Z,15.10
2017-06-27T00:05:27.246Z,17.20
2017-06-27T00:07:54.770Z,16.40
2017-06-27T00:10:22.292Z,14.77
2017-06-27T00:12:49.809Z,16.27
2017-06-27T00:15:17.324Z,13.47
2017-06-27T00:17:44.858Z,16.57
2017-06-27T00:20:12.408Z,15.30
2017-06-27T00:22:40.191Z,16.80
2017-06-27T00:25:07.717Z,14.70
2017-06-27T00:27:35.224Z,16.67
2017-06-27T00:30:02.781Z,16.50
2017-06-27T00:32:30.298Z,15.20
2017-06-27T00:34:57.820Z,15.80
2017-06-27T00:37:25.336Z,15.30
2017-06-27T00:39:52.856Z,13.20
2017-06-27T00:42:20.379Z,16.33
2017-06-27T00:44:48.373Z,14.73
2017-06-27T00:47:16.652Z,18.33
2017-06-27T00:49:44.928Z,18.27
2017-06-27T00:52:13.227Z,20.07
2017-06-27T00:54:40.737Z,17.13
2017-06-27T00:57:08.277Z,16.80
2017-06-27T00:59:35.833Z,20.80
2017-06-27T01:02:03.350Z,20.73
2017-06-27T01:04:30.888Z,18.30
2017-06-27T01:06:58.427Z,17.90
2017-06-27T01:09:25.969Z,15.93
2017-06-27T01:11:53.476Z,16.33
2017-06-27T01:14:21.775Z,15.80
2017-06-27T01:16:49.293Z,15.30
2017-06-27T01:19:16.830Z,16.50
2017-06-27T01:21:44.350Z,17.23
2017-06-27T01:24:11.873Z,16.13
2017-06-27T01:26:39.789Z,16.07
2017-06-27T01:29:07.306Z,18.13
2017-06-27T01:31:35.569Z,17.07
2017-06-27T01:34:03.104Z,14.87
2017-06-27T01:36:30.623Z,15.70
2017-06-27T01:38:58.150Z,19.67
2017-06-27T01:41:25.968Z,15.70
2017-06-27T01:43:53.493Z,16.63
2017-06-27T01:46:21.759Z,15.33
2017-06-27T01:48:50.050Z,19.73
2017-06-27T01:51:17.581Z,16.70
2017-06-27T01:53:45.103Z,15.23
2017-06-27T01:56:13.031Z,23.30
2017-06-27T01:58:41.310Z,16.93
2017-06-27T02:01:08.829Z,16.80
2017-06-27T02:03:36.359Z,16.70
2017-06-27T02:06:03.870Z,18.43
2017-06-27T02:08:32.151Z,15.47
2017-06-27T02:11:00.425Z,18.27
2017-06-27T02:13:27.941Z,17.33
2017-06-27T02:15:55.453Z,16.07
2017-06-27T02:18:22.974Z,17.50
2017-06-27T02:20:50.883Z,15.50
2017-06-27T02:23:18.392Z,17.90
2017-06-27T02:25:45.915Z,15.10
2017-06-27T02:28:13.461Z,16.20
2017-06-27T02:30:40.996Z,15.70
2017-06-27T02:33:08.825Z,17.73
2017-06-27T02:35:36.352Z,17.63
2017-06-27T02:38:03.862Z,19.27
2017-06-27T02:40:31.400Z,24.90
2017-06-27T02:42:58.913Z,19.10
2017-06-27T02:45:26.439Z,17.10
2017-06-27T02:47:53.958Z,16.10
2017-06-27T02:50:21.497Z,17.60
2017-06-27T02:52:49.024Z,17.80
2017-06-27T02:55:16.532Z,20.77
2017-06-27T02:57:44.047Z,20.03
2017-06-27T03:00:11.561Z,16.90
2017-06-27T03:02:39.089Z,22.70
2017-06-27T03:05:06.603Z,16.77
2017-06-27T03:07:34.119Z,18.73
2017-06-27T03:10:01.640Z,17.20
2017-06-27T03:12:29.901Z,17.57
2017-06-27T03:14:57.422Z,16.57
2017-06-27T03:17:24.960Z,16.83
2017-06-27T03:19:52.485Z,21.43
2017-06-27T03:22:19.998Z,18.10
2017-06-27T03:24:47.773Z,18.63
2017-06-27T03:27:15.273Z,20.03
2017-06-27T03:29:43.555Z,17.10
2017-06-27T03:32:11.074Z,17.63
2017-06-27T03:34:38.580Z,17.80
2017-06-27T03:37:06.109Z,17.60
2017-06-27T03:39:33.610Z,17.50
2017-06-27T03:42:01.465Z,17.67
2017-06-27T03:44:28.992Z,21.50
2017-06-27T03:46:56.509Z,16.47
2017-06-27T03:49:24.051Z,17.23
2017-06-27T03:51:51.562Z,18.13
2017-06-27T03:54:19.084Z,18.63
2017-06-27T03:56:46.608Z,17.77
2017-06-27T03:59:14.895Z,24.33
2017-06-27T04:01:43.192Z,15.97
2017-06-27T04:04:11.055Z,18.60
2017-06-27T04:06:38.568Z,16.97
2017-06-27T04:09:06.080Z,20.43
2017-06-27T04:11:33.614Z,16.87
2017-06-27T04:14:01.134Z,18.90
2017-06-27T04:16:28.654Z,18.97
2017-06-27T04:18:56.178Z,18.10
2017-06-27T04:21:24.466Z,18.33
2017-06-27T04:23:52.003Z,19.90
2017-06-27T04:26:19.528Z,18.90
2017-06-27T04:28:47.108Z,21.73
2017-06-27T04:31:14.762Z,22.40
2017-06-27T04:33:42.567Z,20.17
2017-06-27T04:36:10.104Z,17.07
2017-06-27T04:38:37.628Z,19.30
2017-06-27T04:41:05.557Z,20.30
2017-06-27T04:43:33.068Z,18.57
2017-06-27T04:46:00.580Z,15.20
2017-06-27T04:48:28.096Z,19.37
2017-06-27T04:50:55.618Z,16.53
2017-06-27T04:53:23.149Z,14.73
2017-06-27T04:55:50.684Z,15.53
2017-06-27T04:58:18.213Z,16.57
2017-06-27T05:00:45.752Z,15.00
2017-06-27T05:03:13.279Z,16.77
2017-06-27T05:05:41.553Z,18.97
2017-06-27T05:08:09.846Z,18.30
2017-06-27T05:10:37.361Z,18.37
2017-06-27T05:13:04.901Z,15.90
2017-06-27T05:15:32.431Z,16.40
2017-06-27T05:17:59.951Z,17.27
2017-06-27T05:20:27.784Z,16.87
2017-06-27T05:22:55.304Z,18.23
2017-06-27T05:25:22.825Z,20.70
2017-06-27T05:27:50.387Z,17.93
2017-06-27T05:30:17.907Z,18.70
2017-06-27T05:32:45.443Z,19.13
2017-06-27T05:35:13.009Z,17.23
2017-06-27T05:37:40.531Z,18.33
2017-06-27T05:40:08.840Z,17.20
2017-06-27T05:42:36.366Z,17.80
2017-06-27T05:45:03.891Z,17.90
2017-06-27T05:47:31.418Z,15.73
2017-06-27T05:49:58.963Z,15.37
2017-06-27T05:52:26.482Z,16.70
2017-06-27T05:54:53.984Z,17.30
2017-06-27T05:57:21.510Z,17.90
2017-06-27T05:59:49.076Z,17.53
2017-06-27T06:02:17.384Z,16.23
2017-06-27T06:04:44.907Z,23.03
2017-06-27T06:07:12.447Z,20.13
2017-06-27T06:09:39.958Z,17.10
2017-06-27T06:12:07.486Z,16.90
2017-06-27T06:14:35.011Z,21.40
2017-06-27T06:17:02.523Z,18.07
2017-06-27T06:19:30.053Z,18.50
2017-06-27T06:21:57.582Z,15.40
2017-06-27T06:24:25.503Z,18.60
2017-06-27T06:26:53.040Z,14.83
2017-06-27T06:29:20.541Z,16.80
2017-06-27T06:31:48.058Z,17.10
2017-06-27T06:34:16.352Z,16.87
2017-06-27T06:36:44.653Z,15.93
2017-06-27T06:39:12.167Z,14.50
2017-06-27T06:41:40.175Z,15.50
2017-06-27T06:44:07.708Z,17.30
2017-06-27T06:46:35.219Z,16.13
2017-06-27T06:49:02.750Z,17.60
2017-06-27T06:51:30.263Z,17.40
2017-06-27T06:53:57.781Z,14.97
2017-06-27T06:56:25.724Z,15.40
2017-06-27T06:58:53.262Z,12.97
2017-06-27T07:01:20.795Z,15.30
2017-06-27T07:03:48.329Z,17.07
2017-06-27T07:06:16.158Z,14.70
2017-06-27T07:08:44.473Z,16.03
2017-06-27T07:11:11.992Z,16.33
2017-06-27T07:13:40.055Z,16.43
2017-06-27T07:16:07.583Z,18.80
2017-06-27T07:18:35.117Z,15.33
2017-06-27T07:21:02.648Z,17.43
2017-06-27T07:23:30.576Z,15.93
2017-06-27T07:25:58.963Z,15.80
2017-06-27T07:28:29.028Z,16.90
2017-06-27T07:30:56.550Z,15.80
2017-06-27T07:33:24.065Z,17.17
2017-06-27T07:35:51.595Z,15.67
2017-06-27T07:38:19.127Z,17.20
2017-06-27T07:40:46.652Z,18.43
2017-06-27T07:43:14.209Z,20.17
2017-06-27T07:45:41.720Z,18.80
2017-06-27T07:48:09.259Z,19.67
2017-06-27T07:50:36.785Z,18.50
2017-06-27T07:53:04.326Z,18.53
2017-06-27T07:55:31.860Z,17.20
2017-06-27T07:57:59.382Z,15.53
2017-06-27T08:00:26.922Z,18.80
2017-06-27T08:02:54.461Z,18.03
2017-06-27T08:05:21.991Z,15.97
2017-06-27T08:07:49.522Z,14.50
2017-06-27T08:10:17.044Z,17.60
2017-06-27T08:12:44.538Z,16.20
2017-06-27T08:15:12.064Z,17.67
2017-06-27T08:17:39.585Z,15.13
2017-06-27T08:20:07.116Z,17.20
2017-06-27T08:22:34.632Z,15.00
2017-06-27T08:25:03.000Z,15.80
2017-06-27T08:27:30.505Z,16.40
2017-06-27T08:29:58.330Z,17.10
2017-06-27T08:32:25.835Z,15.57
2017-06-27T08:34:53.367Z,17.60
2017-06-27T08:37:21.292Z,16.23
2017-06-27T08:39:48.833Z,13.53
2017-06-27T08:42:16.363Z,14.63
2017-06-27T08:44:43.912Z,14.40
2017-06-27T08:47:11.426Z,12.40
2017-06-27T08:49:38.950Z,12.20
2017-06-27T08:52:06.503Z,15.20
2017-06-27T08:54:34.031Z,15.03
2017-06-27T08:57:01.572Z,13.97
2017-06-27T08:59:29.095Z,13.97
2017-06-27T09:01:57.093Z,12.73
2017-06-27T09:04:24.616Z,19.43
2017-06-27T09:06:52.162Z,11.37
2017-06-27T09:09:19.703Z,12.50
2017-06-27T09:11:47.242Z,15.40
2017-06-27T09:14:14.773Z,19.60
2017-06-27T09:16:43.058Z,17.83
2017-06-27T09:19:10.602Z,18.77
2017-06-27T09:21:38.120Z,19.80
2017-06-27T09:24:05.645Z,20.93
2017-06-27T09:26:33.161Z,21.20
2017-06-27T09:29:00.671Z,22.70
2017-06-27T09:31:28.208Z,18.27
2017-06-27T09:33:55.726Z,20.60
2017-06-27T09:36:23.538Z,21.30
2017-06-27T09:38:51.080Z,18.17
2017-06-27T09:41:18.590Z,21.37
2017-06-27T09:43:46.121Z,18.23
2017-06-27T09:46:13.629Z,15.67
2017-06-27T09:48:41.655Z,15.73
2017-06-27T09:51:09.197Z,15.13
2017-06-27T09:53:36.717Z,13.87
2017-06-27T09:56:04.276Z,16.27
2017-06-27T09:58:31.818Z,13.37
2017-06-27T10:00:59.375Z,18.30
2017-06-27T10:03:26.911Z,15.63
2017-06-27T10:05:54.447Z,15.87
2017-06-27T10:08:22.744Z,18.23
2017-06-27T10:10:50.278Z,15.03
2017-06-27T10:13:17.822Z,16.20
2017-06-27T10:15:47.541Z,20.47
2017-06-27T10:18:16.262Z,20.57
2017-06-27T10:20:48.376Z,21.13
2017-06-27T10:23:16.267Z,19.87
2017-06-27T10:25:44.557Z,27.60
2017-06-27T10:28:12.088Z,24.30
2017-06-27T10:30:39.670Z,24.83
2017-06-27T10:33:07.195Z,22.13
2017-06-27T10:35:34.719Z,22.90
2017-06-27T10:38:02.757Z,26.57
2017-06-27T10:40:30.292Z,23.93
2017-06-27T10:42:58.913Z,24.10
2017-06-27T10:45:26.562Z,19.63
2017-06-27T10:47:54.699Z,18.80
2017-06-27T10:50:22.609Z,19.80
2017-06-27T10:52:50.167Z,17.27
2017-06-27T10:55:17.714Z,18.40
2017-06-27T10:57:45.382Z,17.90
2017-06-27T11:00:13.013Z,18.97
2017-06-27T11:02:40.627Z,20.77
2017-06-27T11:05:08.144Z,20.30
2017-06-27T11:07:35.675Z,17.73
2017-06-27T11:10:03.183Z,18.60
2017-06-27T11:12:31.056Z,18.13
2017-06-27T11:14:58.570Z,18.70
2017-06-27T11:17:26.099Z,19.90
2017-06-27T11:19:53.670Z,20.30
2017-06-27T11:22:21.181Z,19.00
2017-06-27T11:24:48.711Z,19.93
2017-06-27T11:27:17.003Z,16.13
2017-06-27T11:29:45.309Z,17.87
2017-06-27T11:32:12.827Z,18.80
2017-06-27T11:34:40.354Z,19.00
2017-06-27T11:37:07.876Z,17.10
2017-06-27T11:39:35.397Z,17.37
2017-06-27T11:42:03.396Z,15.60
2017-06-27T11:44:30.909Z,17.37
2017-06-27T11:46:58.419Z,12.97
2017-06-27T11:49:26.204Z,16.90
2017-06-27T11:51:53.725Z,16.30
2017-06-27T11:54:21.251Z,16.93
2017-06-27T11:56:49.073Z,16.10
2017-06-27T11:59:16.602Z,12.87
2017-06-27T12:01:56.171Z,10.80
2017-06-27T12:04:27.196Z,10.97
2017-06-27T12:06:55.472Z,9.73
2017-06-27T12:09:29.738Z,11.70
2017-06-27T12:11:57.253Z,11.43
2017-06-27T12:14:24.792Z,11.43
2017-06-27T12:16:53.068Z,9.07
2017-06-27T12:19:21.356Z,14.17
2017-06-27T12:21:48.867Z,8.23
2017-06-27T12:24:16.373Z,8.30
2017-06-27T12:26:43.896Z,8.00
2017-06-27T12:29:11.439Z,9.60
2017-06-27T12:31:38.977Z,8.50
2017-06-27T12:34:06.516Z,7.77
2017-06-27T12:36:34.050Z,10.70
2017-06-27T12:39:01.549Z,9.67
2017-06-27T12:41:29.519Z,9.20
2017-06-27T12:43:57.018Z,8.30
2017-06-27T12:46:24.517Z,10.10
2017-06-27T12:48:52.072Z,11.07
2017-06-27T12:51:19.623Z,12.93
2017-06-27T12:53:47.149Z,9.20
2017-06-27T12:56:14.667Z,11.27
2017-06-27T12:58:42.479Z,9.63
2017-06-27T13:01:10.015Z,11.93
2017-06-27T13:03:37.518Z,14.57
2017-06-27T13:06:05.061Z,11.83
2017-06-27T13:08:32.571Z,9.80
2017-06-27T13:11:00.094Z,12.50
2017-06-27T13:13:27.644Z,13.73
2017-06-27T13:15:55.947Z,10.93
2017-06-27T13:18:23.451Z,11.60
2017-06-27T13:20:50.980Z,10.70
2017-06-27T13:23:18.591Z,11.60
2017-06-27T13:25:46.123Z,11.23
2017-06-27T13:28:13.645Z,10.70
2017-06-27T13:30:41.528Z,12.70
2017-06-27T13:33:09.046Z,11.80
2017-06-27T13:35:36.690Z,12.40
2017-06-27T13:38:04.220Z,14.30
2017-06-27T13:40:31.757Z,16.37
2017-06-27T13:42:59.313Z,12.00
2017-06-27T13:45:26.838Z,13.70
2017-06-27T13:47:55.140Z,12.47
2017-06-27T13:50:22.681Z,18.20
2017-06-27T13:52:50.201Z,12.03
2017-06-27T13:55:17.727Z,14.00
2017-06-27T13:57:45.250Z,11.50
2017-06-27T14:00:12.771Z,13.50
2017-06-27T14:02:40.299Z,12.90
2017-06-27T14:05:07.832Z,10.43
2017-06-27T14:07:35.365Z,10.30
2017-06-27T14:10:02.869Z,10.40
2017-06-27T14:12:30.662Z,16.60
2017-06-27T14:14:58.183Z,9.03
2017-06-27T14:17:25.714Z,10.60
2017-06-27T14:19:53.252Z,13.37
2017-06-27T14:22:20.769Z,8.60
2017-06-27T14:24:48.291Z,10.23
2017-06-27T14:27:15.832Z,10.33
2017-06-27T14:29:43.342Z,11.73
2017-06-27T14:32:10.887Z,9.37
2017-06-27T14:34:38.406Z,10.90
2017-06-27T14:37:05.909Z,10.70
2017-06-27T14:39:34.203Z,12.10
2017-06-27T14:42:01.983Z,9.90
2017-06-27T14:44:29.508Z,11.67
2017-06-27T14:46:57.815Z,9.30
2017-06-27T14:49:25.325Z,9.33
2017-06-27T14:51:53.135Z,9.47
2017-06-27T14:54:20.679Z,7.73
2017-06-27T14:56:48.211Z,11.20
2017-06-27T14:59:16.022Z,8.43
2017-06-27T15:01:43.527Z,7.27
2017-06-27T15:04:11.041Z,7.80
2017-06-27T15:06:38.567Z,8.10
2017-06-27T15:09:06.096Z,8.63
2017-06-27T15:11:33.611Z,12.23
2017-06-27T15:14:01.479Z,8.97
2017-06-27T15:16:28.999Z,12.60
2017-06-27T15:18:56.520Z,10.70
2017-06-27T15:21:24.049Z,12.70
2017-06-27T15:23:51.564Z,12.63
2017-06-27T15:26:19.103Z,11.50
2017-06-27T15:28:46.639Z,12.37
2017-06-27T15:31:14.158Z,7.50
2017-06-27T15:33:41.687Z,7.43
2017-06-27T15:36:09.221Z,10.50
2017-06-27T15:38:36.752Z,8.93
2017-06-27T15:41:04.263Z,7.60
2017-06-27T15:43:31.800Z,12.40
2017-06-27T15:45:59.388Z,11.37
2017-06-27T15:48:26.899Z,8.20
2017-06-27T15:50:54.444Z,9.40
2017-06-27T15:53:21.969Z,8.50
2017-06-27T15:55:50.267Z,15.30
2017-06-27T15:58:18.543Z,10.10
2017-06-27T16:00:46.087Z,10.10
2017-06-27T16:03:13.693Z,9.07
2017-06-27T16:05:41.581Z,10.50
2017-06-27T16:08:09.105Z,10.50
2017-06-27T16:10:36.651Z,11.27
2017-06-27T16:13:04.204Z,11.87
2017-06-27T16:15:31.727Z,14.50
2017-06-27T16:17:59.254Z,17.43
2017-06-27T16:20:26.788Z,13.53
2017-06-27T16:22:54.327Z,17.70
2017-06-27T16:25:22.712Z,15.87
2017-06-27T16:27:50.331Z,16.90
2017-06-27T16:30:17.873Z,14.57
2017-06-27T16:32:45.472Z,16.17
2017-06-27T16:35:13.025Z,16.73
2017-06-27T16:37:40.585Z,15.90
2017-06-27T16:40:08.136Z,16.13
2017-06-27T16:42:35.689Z,12.37
2017-06-27T16:45:03.206Z,13.20
2017-06-27T16:47:30.740Z,12.17
2017-06-27T16:49:59.029Z,12.40
2017-06-27T16:52:27.760Z,11.33
2017-06-27T16:54:55.273Z,11.50
2017-06-27T16:57:22.799Z,12.03
2017-06-27T16:59:50.356Z,10.60
2017-06-27T17:02:17.933Z,11.60
2017-06-27T17:04:46.252Z,11.20
2017-06-27T17:07:13.818Z,10.90
2017-06-27T17:09:41.794Z,11.13
2017-06-27T17:12:10.104Z,11.50
2017-06-27T17:14:37.624Z,10.70
2017-06-27T17:17:05.436Z,11.53
2017-06-27T17:19:32.976Z,10.80
2017-06-27T17:22:00.506Z,10.87
2017-06-27T17:24:28.305Z,9.90
2017-06-27T17:26:55.827Z,9.13
2017-06-27T17:29:23.356Z,8.43
2017-06-27T17:31:50.883Z,8.73
2017-06-27T17:34:18.398Z,8.83
2017-06-27T17:36:46.273Z,7.30
2017-06-27T17:39:13.808Z,9.77
2017-06-27T17:41:41.344Z,9.03
2017-06-27T17:44:10.098Z,7.57
2017-06-27T17:46:37.634Z,8.20
2017-06-27T17:49:05.142Z,9.40
2017-06-27T17:51:32.689Z,9.03
2017-06-27T17:54:00.219Z,9.10
2017-06-27T17:56:27.754Z,9.27
2017-06-27T17:58:55.291Z,11.03
2017-06-27T18:01:22.866Z,10.37
2017-06-27T18:03:50.393Z,12.03
2017-06-27T18:06:18.014Z,11.20
2017-06-27T18:08:45.617Z,10.37
2017-06-27T18:11:13.157Z,9.90
2017-06-27T18:13:40.704Z,9.40
2017-06-27T18:16:08.221Z,12.77
2017-06-27T18:18:36.037Z,13.90
2017-06-27T18:21:03.577Z,10.53
2017-06-27T18:23:31.130Z,14.80
2017-06-27T18:25:58.672Z,12.20
2017-06-27T18:28:26.180Z,10.63
2017-06-27T18:30:58.651Z,12.37
2017-06-27T18:33:26.191Z,10.20
2017-06-27T18:35:53.737Z,9.60
2017-06-27T18:38:21.258Z,9.97
2017-06-27T18:40:49.576Z,12.37
2017-06-27T18:43:17.430Z,10.67
2017-06-27T18:45:44.942Z,11.00
2017-06-27T18:48:12.460Z,9.97
2017-06-27T18:50:40.004Z,10.37
2017-06-27T18:53:07.581Z,10.63
2017-06-27T18:55:35.108Z,12.00
2017-06-27T18:58:02.650Z,14.20
2017-06-27T19:00:30.199Z,11.30
2017-06-27T19:02:57.720Z,11.73
2017-06-27T19:05:25.556Z,11.23
2017-06-27T19:07:53.096Z,15.37
2017-06-27T19:10:20.624Z,11.47
2017-06-27T19:12:48.148Z,9.90
2017-06-27T19:15:15.668Z,12.60
2017-06-27T19:17:43.303Z,11.40
2017-06-27T19:20:10.929Z,10.37
2017-06-27T19:22:38.916Z,11.17
2017-06-27T19:25:06.455Z,10.30
2017-06-27T19:27:33.994Z,11.10
2017-06-27T19:30:01.530Z,10.90
2017-06-27T19:32:29.064Z,12.10
2017-06-27T19:34:56.923Z,11.83
2017-06-27T19:37:24.481Z,12.10
2017-06-27T19:39:52.011Z,10.90
2017-06-27T19:42:19.636Z,11.73
2017-06-27T19:44:47.208Z,14.40
2017-06-27T19:47:14.755Z,15.40
2017-06-27T19:49:43.086Z,14.37
2017-06-27T19:52:10.626Z,17.23
2017-06-27T19:54:38.173Z,16.57
2017-06-27T19:57:05.721Z,11.93
2017-06-27T19:59:33.286Z,12.00
2017-06-27T20:02:00.802Z,13.10
2017-06-27T20:04:28.382Z,15.20
2017-06-27T20:06:55.956Z,14.90
2017-06-27T20:09:23.543Z,15.27
2017-06-27T20:11:51.102Z,12.30
2017-06-27T20:14:19.081Z,12.37
2017-06-27T20:16:46.615Z,12.57
2017-06-27T20:19:14.144Z,11.37
2017-06-27T20:21:41.699Z,13.27
2017-06-27T20:24:09.336Z,15.20
2017-06-27T20:26:36.913Z,12.57
2017-06-27T20:29:04.480Z,12.93
2017-06-27T20:31:32.038Z,16.60
2017-06-27T20:33:59.588Z,14.37
2017-06-27T20:36:27.164Z,12.77
2017-06-27T20:38:54.712Z,11.93
2017-06-27T20:41:22.234Z,12.30
2017-06-27T20:43:49.788Z,11.30
2017-06-27T20:46:17.309Z,11.80
2017-06-27T20:48:44.949Z,11.13
2017-06-27T20:51:12.475Z,11.17
2017-06-27T20:53:40.460Z,9.20
2017-06-27T20:56:07.980Z,9.37
2017-06-27T20:58:35.485Z,9.37
2017-06-27T21:01:03.023Z,10.63
2017-06-27T21:03:30.553Z,12.23
2017-06-27T21:05:58.543Z,8.37
2017-06-27T21:08:26.089Z,11.67
2017-06-27T21:10:53.626Z,9.90
2017-06-27T21:13:21.930Z,10.93
2017-06-27T21:15:49.440Z,10.00
2017-06-27T21:18:17.021Z,8.70
2017-06-27T21:20:45.322Z,12.40
2017-06-27T21:23:12.831Z,9.13
2017-06-27T21:25:40.363Z,13.83
2017-06-27T21:28:07.901Z,8.77
2017-06-27T21:30:35.438Z,9.83
2017-06-27T21:33:02.957Z,9.67
2017-06-27T21:35:30.506Z,13.43
2017-06-27T21:37:58.448Z,9.17
2017-06-27T21:40:25.956Z,14.20
2017-06-27T21:42:53.764Z,10.97
2017-06-27T21:45:21.299Z,10.20
2017-06-27T21:47:49.571Z,9.50
2017-06-27T21:50:17.098Z,10.63
2017-06-27T21:52:44.615Z,8.67
2017-06-27T21:55:12.598Z,10.80
2017-06-27T21:57:40.119Z,11.60
2017-06-27T22:00:07.643Z,13.80
2017-06-27T22:02:35.188Z,13.87
2017-06-27T22:05:02.725Z,14.97
2017-06-27T22:07:30.264Z,17.60
2017-06-27T22:09:57.804Z,16.27
2017-06-27T22:12:25.332Z,23.93
2017-06-27T22:14:52.847Z,8.10
2017-06-27T22:17:20.434Z,8.20
2017-06-27T22:19:47.953Z,5.20
2017-06-27T22:22:16.232Z,7.37
2017-06-27T22:24:44.532Z,9.70
2017-06-27T22:27:12.053Z,10.33
2017-06-27T22:29:39.573Z,11.30
2017-06-27T22:32:07.243Z,13.03
2017-06-27T22:34:34.853Z,14.50
2017-06-27T22:37:02.405Z,8.10
2017-06-27T22:39:30.685Z,9.33
2017-06-27T22:41:58.562Z,9.47
2017-06-27T22:44:26.072Z,9.43
2017-06-27T22:46:53.875Z,11.97
2017-06-27T22:49:21.428Z,14.50
2017-06-27T22:51:48.929Z,15.40
2017-06-27T22:54:16.455Z,15.60
2017-06-27T22:56:43.986Z,15.33
2017-06-27T22:59:11.790Z,14.53
2017-06-27T23:01:39.317Z,14.53
2017-06-27T23:04:06.855Z,15.37
2017-06-27T23:06:34.386Z,15.17
2017-06-27T23:09:01.894Z,13.67
2017-06-27T23:11:29.425Z,13.20
2017-06-27T23:13:56.963Z,14.53
2017-06-27T23:16:24.483Z,13.10
2017-06-27T23:18:52.001Z,13.83
2017-06-27T23:21:19.496Z,13.00
2017-06-27T23:23:46.999Z,13.20
2017-06-27T23:26:14.526Z,11.57
2017-06-27T23:28:42.058Z,13.00
2017-06-27T23:31:10.353Z,11.70
2017-06-27T23:33:37.894Z,12.00
2017-06-27T23:36:05.404Z,12.40
2017-06-27T23:38:32.934Z,11.20
2017-06-27T23:41:00.447Z,11.27
2017-06-27T23:43:27.979Z,14.57
2017-06-27T23:45:55.488Z,12.80
2017-06-27T23:48:23.785Z,12.83
2017-06-27T23:50:51.301Z,14.23
2017-06-27T23:53:18.832Z,17.73
2017-06-27T23:55:46.333Z,13.97
2017-06-27T23:58:13.865Z,12.50
